createdAt,value
2019-03-15T00:01:08.862Z,42.10
2019-03-15T00:03:36.376Z,46.87
2019-03-15T00:06:03.930Z,37.43
2019-03-15T00:08:31.535Z,42.77
2019-03-15T00:10:59.131Z,43.57
2019-03-15T00:13:26.686Z,41.43
2019-03-15T00:15:54.166Z,43.03
2019-03-15T00:18:21.646Z,36.20
2019-03-15T00:20:49.144Z,41.10
2019-03-15T00:23:16.653Z,32.00
2019-03-15T00:25:44.142Z,33.77
2019-03-15T00:28:11.643Z,39.23
2019-03-15T00:30:39.213Z,37.97
2019-03-15T00:33:06.694Z,38.00
2019-03-15T00:35:34.239Z,34.40
2019-03-15T00:38:01.779Z,39.40
2019-03-15T00:40:29.382Z,36.03
2019-03-15T00:42:56.893Z,31.83
2019-03-15T00:45:24.393Z,32.60
2019-03-15T00:47:51.950Z,37.80
2019-03-15T00:50:19.460Z,36.27
2019-03-15T00:52:46.965Z,32.33
2019-03-15T00:55:14.550Z,30.73
2019-03-15T00:57:42.078Z,34.63
2019-03-15T01:00:11.212Z,33.97
2019-03-15T01:02:38.693Z,32.43
2019-03-15T01:05:06.264Z,34.30
2019-03-15T01:07:33.750Z,29.80
2019-03-15T01:10:01.264Z,33.53
2019-03-15T01:12:28.756Z,35.60
2019-03-15T01:14:56.253Z,30.40
2019-03-15T01:17:23.792Z,32.07
2019-03-15T01:19:51.286Z,34.40
2019-03-15T01:22:18.834Z,41.80
2019-03-15T01:24:46.342Z,27.50
2019-03-15T01:27:13.839Z,34.50
2019-03-15T01:29:41.382Z,36.33
2019-03-15T01:32:08.882Z,36.17
2019-03-15T01:34:36.394Z,32.50
2019-03-15T01:37:04.040Z,34.57
2019-03-15T01:39:31.546Z,30.50
2019-03-15T01:41:59.088Z,34.00
2019-03-15T01:44:26.623Z,33.93
2019-03-15T01:46:54.119Z,33.10
2019-03-15T01:49:21.642Z,29.67
2019-03-15T01:51:49.159Z,38.27
2019-03-15T01:54:16.718Z,37.50
2019-03-15T01:56:44.249Z,37.03
2019-03-15T01:59:11.739Z,32.43
2019-03-15T02:01:39.222Z,29.67
2019-03-15T02:04:06.728Z,34.70
2019-03-15T02:06:34.230Z,33.50
2019-03-15T02:09:01.751Z,32.23
2019-03-15T02:11:29.531Z,31.30
2019-03-15T02:13:57.116Z,30.37
2019-03-15T02:16:24.868Z,33.43
2019-03-15T02:18:52.352Z,29.97
2019-03-15T02:21:19.895Z,32.37
2019-03-15T02:23:48.410Z,32.23
2019-03-15T02:26:15.943Z,32.63
2019-03-15T02:28:43.439Z,35.13
2019-03-15T02:31:10.966Z,33.23
2019-03-15T02:33:38.497Z,34.23
2019-03-15T02:36:05.995Z,30.63
2019-03-15T02:38:33.538Z,35.53
2019-03-15T02:41:01.314Z,33.20
2019-03-15T02:43:28.816Z,31.73
2019-03-15T02:45:56.363Z,35.17
2019-03-15T02:48:23.849Z,35.63
2019-03-15T02:50:51.345Z,37.50
2019-03-15T02:53:18.906Z,38.00
2019-03-15T02:55:46.631Z,35.97
2019-03-15T02:58:15.313Z,30.40
2019-03-15T03:00:42.814Z,26.43
2019-03-15T03:03:10.322Z,30.97
2019-03-15T03:05:37.851Z,28.80
2019-03-15T03:08:05.350Z,29.80
2019-03-15T03:10:32.865Z,29.50
2019-03-15T03:13:00.550Z,27.73
2019-03-15T03:15:28.089Z,33.70
2019-03-15T03:17:55.605Z,31.00
2019-03-15T03:20:23.104Z,29.77
2019-03-15T03:22:50.601Z,35.63
2019-03-15T03:25:18.098Z,33.10
2019-03-15T03:27:45.634Z,27.20
2019-03-15T03:30:16.345Z,29.57
2019-03-15T03:32:44.096Z,28.33
2019-03-15T03:35:12.374Z,33.63
2019-03-15T03:37:40.117Z,29.17
2019-03-15T03:40:07.771Z,33.93
2019-03-15T03:42:35.301Z,33.50
2019-03-15T03:45:03.128Z,32.23
2019-03-15T03:47:32.702Z,34.80
2019-03-15T03:49:59.927Z,31.20
2019-03-15T03:52:27.512Z,32.57
2019-03-15T03:54:54.958Z,27.47
2019-03-15T03:57:22.477Z,33.37
2019-03-15T03:59:50.037Z,28.37
2019-03-15T04:02:17.522Z,30.70
2019-03-15T04:04:45.178Z,28.37
2019-03-15T04:07:12.720Z,39.67
2019-03-15T04:09:40.258Z,32.83
2019-03-15T04:12:07.878Z,29.27
2019-03-15T04:14:35.389Z,33.37
2019-03-15T04:17:02.899Z,39.33
2019-03-15T04:19:30.409Z,33.10
2019-03-15T04:21:58.164Z,36.53
2019-03-15T04:24:25.697Z,32.67
2019-03-15T04:26:53.206Z,37.47
2019-03-15T04:29:20.700Z,39.10
2019-03-15T04:31:48.206Z,40.93
2019-03-15T04:34:15.706Z,49.27
2019-03-15T04:36:43.332Z,47.57
2019-03-15T04:39:13.779Z,33.30
2019-03-15T04:41:40.158Z,31.63
2019-03-15T04:44:07.675Z,33.80
2019-03-15T04:46:35.237Z,33.60
2019-03-15T04:49:02.771Z,29.40
2019-03-15T04:51:30.271Z,29.93
2019-03-15T04:53:57.800Z,32.53
2019-03-15T04:56:25.378Z,36.97
2019-03-15T04:58:52.918Z,29.40
2019-03-15T05:01:20.390Z,29.43
2019-03-15T05:03:47.890Z,35.90
2019-03-15T05:06:15.526Z,31.57
2019-03-15T05:08:43.043Z,38.73
2019-03-15T05:11:10.539Z,38.47
2019-03-15T05:13:38.065Z,47.07
2019-03-15T05:16:05.557Z,38.70
2019-03-15T05:18:33.051Z,37.00
2019-03-15T05:21:00.603Z,38.80
2019-03-15T05:23:28.143Z,37.13
2019-03-15T05:25:55.650Z,34.83
2019-03-15T05:28:23.196Z,36.10
2019-03-15T05:30:50.709Z,34.47
2019-03-15T05:33:18.212Z,35.17
2019-03-15T05:35:45.738Z,33.43
2019-03-15T05:51:13.473Z,34.23
2019-03-15T05:53:40.990Z,33.50
2019-03-15T05:56:08.482Z,26.20
2019-03-15T05:58:36.412Z,31.30
2019-03-15T06:01:04.024Z,26.00
2019-03-15T06:03:31.531Z,34.43
2019-03-15T06:05:59.039Z,32.33
2019-03-15T06:08:27.705Z,32.47
2019-03-15T06:10:55.278Z,31.67
2019-03-15T06:13:22.877Z,32.57
2019-03-15T06:15:50.450Z,29.13
2019-03-15T06:18:17.965Z,27.67
2019-03-15T06:20:46.403Z,29.60
2019-03-15T06:23:16.831Z,30.53
2019-03-15T06:25:43.559Z,28.63
2019-03-15T06:28:11.078Z,30.77
2019-03-15T06:30:38.584Z,22.30
2019-03-15T06:33:06.138Z,21.27
2019-03-15T06:35:33.640Z,23.07
2019-03-15T06:38:01.226Z,23.73
2019-03-15T06:40:30.553Z,23.90
2019-03-15T06:42:58.043Z,23.37
2019-03-15T06:45:25.563Z,23.43
2019-03-15T06:47:53.119Z,23.03
2019-03-15T06:50:20.740Z,24.20
2019-03-15T06:52:48.334Z,22.83
2019-03-15T06:55:15.845Z,22.23
2019-03-15T06:57:43.385Z,27.03
2019-03-15T07:00:10.957Z,21.60
2019-03-15T07:02:38.785Z,23.33
2019-03-15T07:05:06.784Z,26.03
2019-03-15T07:07:34.335Z,19.97
2019-03-15T07:10:01.854Z,24.93
2019-03-15T07:12:29.339Z,23.57
2019-03-15T07:14:56.889Z,25.97
2019-03-15T07:17:25.998Z,23.50
2019-03-15T07:19:54.579Z,23.23
2019-03-15T07:22:22.324Z,22.07
2019-03-15T07:24:49.811Z,22.47
2019-03-15T07:27:17.294Z,24.87
2019-03-15T07:29:46.240Z,24.07
2019-03-15T07:32:13.882Z,22.30
2019-03-15T07:34:41.634Z,27.00
2019-03-15T07:37:09.352Z,26.40
2019-03-15T07:39:36.877Z,28.33
2019-03-15T07:42:04.473Z,23.30
2019-03-15T07:44:32.129Z,25.70
2019-03-15T07:46:59.643Z,24.77
2019-03-15T07:49:27.189Z,36.17
2019-03-15T07:51:54.707Z,30.90
2019-03-15T07:54:22.296Z,30.97
2019-03-15T07:56:49.889Z,18.50
2019-03-15T07:59:18.017Z,29.57
2019-03-15T08:01:45.588Z,22.33
2019-03-15T08:04:17.120Z,22.27
2019-03-15T08:06:44.049Z,21.77
2019-03-15T08:09:11.520Z,30.00
2019-03-15T08:11:39.063Z,28.67
2019-03-15T08:14:06.600Z,24.07
2019-03-15T08:16:34.759Z,27.17
2019-03-15T08:19:04.860Z,24.73
2019-03-15T08:21:31.647Z,18.53
2019-03-15T08:23:59.202Z,38.27
2019-03-15T08:26:29.957Z,18.27
2019-03-15T08:28:56.125Z,19.47
2019-03-15T08:31:23.901Z,15.90
2019-03-15T08:33:51.463Z,17.27
2019-03-15T08:36:20.321Z,15.20
2019-03-15T08:38:48.169Z,13.87
2019-03-15T08:41:15.697Z,14.57
2019-03-15T08:43:45.961Z,18.57
2019-03-15T08:46:12.527Z,20.67
2019-03-15T08:48:40.011Z,24.20
2019-03-15T08:51:10.479Z,22.50
2019-03-15T08:53:36.895Z,23.63
2019-03-15T08:56:04.442Z,18.80
2019-03-15T08:58:31.980Z,18.20
2019-03-15T09:00:59.483Z,16.83
2019-03-15T09:03:28.162Z,18.83
2019-03-15T09:05:56.148Z,17.57
2019-03-15T09:08:23.643Z,22.27
2019-03-15T09:10:51.128Z,26.47
2019-03-15T09:13:18.700Z,28.73
2019-03-15T09:15:46.270Z,26.73
2019-03-15T09:18:13.721Z,22.10
2019-03-15T09:20:41.995Z,27.27
2019-03-15T09:23:09.525Z,29.57
2019-03-15T09:25:37.028Z,28.43
2019-03-15T09:28:04.535Z,28.73
2019-03-15T09:30:32.056Z,30.07
2019-03-15T09:33:02.911Z,27.00
2019-03-15T09:35:28.881Z,31.50
2019-03-15T09:37:56.433Z,25.90
2019-03-15T09:40:25.724Z,25.27
2019-03-15T09:42:53.237Z,22.53
2019-03-15T09:45:21.083Z,30.87
2019-03-15T09:47:48.563Z,24.87
2019-03-15T09:50:26.607Z,27.80
2019-03-15T09:52:45.489Z,28.90
2019-03-15T09:55:13.063Z,28.03
2019-03-15T09:57:40.721Z,31.93
2019-03-15T10:00:11.937Z,33.43
2019-03-15T10:02:39.573Z,32.63
2019-03-15T10:05:11.379Z,24.47
2019-03-15T10:07:38.804Z,24.63
2019-03-15T10:10:13.487Z,19.60
2019-03-15T10:12:35.449Z,21.13
2019-03-15T10:15:03.321Z,16.10
2019-03-15T10:17:30.917Z,17.70
2019-03-15T10:19:58.441Z,22.00
2019-03-15T10:22:25.945Z,18.20
2019-03-15T10:24:53.437Z,13.40
2019-03-15T10:27:20.965Z,10.73
2019-03-15T10:29:48.469Z,9.70
2019-03-15T10:32:15.956Z,9.70
2019-03-15T10:34:43.503Z,11.07
2019-03-15T10:37:11.013Z,8.23
2019-03-15T10:39:38.505Z,7.60
2019-03-15T10:42:06.033Z,6.97
2019-03-15T10:44:33.559Z,7.10
2019-03-15T10:47:01.055Z,11.40
2019-03-15T10:49:30.894Z,7.77
2019-03-15T10:51:58.016Z,7.07
2019-03-15T10:54:26.883Z,6.63
2019-03-15T10:56:56.925Z,7.33
2019-03-15T10:59:24.905Z,8.33
2019-03-15T11:01:54.249Z,10.10
2019-03-15T11:04:22.911Z,10.67
2019-03-15T11:06:52.979Z,10.80
2019-03-15T11:09:20.522Z,12.40
2019-03-15T11:11:48.063Z,16.23
2019-03-15T11:14:15.610Z,18.03
2019-03-15T11:16:43.364Z,17.37
2019-03-15T11:19:10.930Z,17.60
2019-03-15T11:21:38.441Z,14.67
2019-03-15T11:24:05.973Z,11.27
2019-03-15T11:26:33.573Z,8.10
2019-03-15T11:29:01.079Z,8.67
2019-03-15T11:31:28.666Z,7.07
2019-03-15T11:33:56.170Z,10.07
2019-03-15T11:36:23.691Z,7.13
2019-03-15T11:38:51.221Z,9.80
2019-03-15T11:41:18.741Z,9.77
2019-03-15T11:43:46.246Z,9.60
2019-03-15T11:46:16.350Z,9.77
2019-03-15T11:48:43.107Z,14.70
2019-03-15T11:51:10.653Z,11.33
2019-03-15T11:53:38.233Z,13.07
2019-03-15T11:56:05.765Z,11.23
2019-03-15T11:58:34.467Z,12.27
2019-03-15T12:01:02.006Z,11.83
2019-03-15T12:03:29.539Z,11.40
2019-03-15T12:05:57.050Z,11.83
2019-03-15T12:08:24.579Z,10.90
2019-03-15T12:10:54.212Z,7.70
2019-03-15T12:13:21.929Z,8.57
2019-03-15T12:15:49.449Z,7.97
2019-03-15T12:18:16.985Z,8.60
2019-03-15T12:20:44.475Z,10.07
2019-03-15T12:23:12.039Z,10.60
2019-03-15T12:25:39.547Z,7.23
2019-03-15T12:28:07.081Z,10.43
2019-03-15T12:30:34.657Z,8.30
2019-03-15T12:33:02.197Z,7.33
2019-03-15T12:35:30.097Z,6.00
2019-03-15T12:37:57.662Z,4.53
2019-03-15T12:40:25.214Z,4.17
2019-03-15T12:42:52.729Z,4.17
2019-03-15T12:45:20.239Z,4.17
2019-03-15T12:47:47.784Z,3.90
2019-03-15T12:50:15.291Z,4.80
2019-03-15T12:52:47.603Z,4.00
2019-03-15T12:55:12.195Z,6.93
2019-03-15T12:57:39.742Z,7.00
2019-03-15T13:00:09.687Z,10.57
2019-03-15T13:02:37.203Z,7.23
2019-03-15T13:05:04.933Z,10.17
2019-03-15T13:07:32.515Z,11.57
2019-03-15T13:10:00.032Z,8.93
2019-03-15T13:12:27.533Z,9.50
2019-03-15T13:14:55.053Z,9.07
2019-03-15T13:17:22.588Z,4.93
2019-03-15T13:19:55.223Z,4.23
2019-03-15T13:22:19.408Z,8.77
2019-03-15T13:24:47.024Z,3.70
2019-03-15T13:27:14.555Z,4.63
2019-03-15T13:29:42.077Z,10.90
2019-03-15T13:32:09.581Z,12.40
2019-03-15T13:34:37.251Z,10.53
2019-03-15T13:37:04.787Z,6.80
2019-03-15T13:39:32.429Z,10.33
2019-03-15T13:41:59.948Z,7.17
2019-03-15T13:44:27.502Z,14.97
2019-03-15T13:46:56.413Z,9.53
2019-03-15T13:49:23.945Z,12.00
2019-03-15T13:51:51.598Z,9.73
2019-03-15T13:54:19.232Z,9.10
2019-03-15T13:56:48.463Z,13.27
2019-03-15T13:59:16.234Z,16.27
2019-03-15T14:01:43.757Z,14.40
2019-03-15T14:04:11.330Z,22.83
2019-03-15T14:06:38.857Z,14.73
2019-03-15T14:09:09.028Z,16.47
2019-03-15T14:11:36.618Z,11.67
2019-03-15T14:14:04.167Z,16.97
2019-03-15T14:16:31.795Z,19.60
2019-03-15T14:18:59.325Z,13.47
2019-03-15T14:21:26.869Z,13.97
2019-03-15T14:23:54.372Z,14.80
2019-03-15T14:26:21.963Z,18.57
2019-03-15T14:28:49.508Z,14.33
2019-03-15T14:31:17.120Z,19.47
2019-03-15T14:33:44.751Z,13.27
2019-03-15T14:36:12.375Z,12.03
2019-03-15T14:38:40.052Z,15.30
2019-03-15T14:41:08.094Z,10.57
2019-03-15T14:43:35.968Z,10.70
2019-03-15T14:46:03.568Z,8.17
2019-03-15T14:48:31.131Z,10.87
2019-03-15T14:50:58.755Z,6.70
2019-03-15T14:53:26.331Z,8.13
2019-03-15T14:55:53.903Z,9.80
2019-03-15T14:58:21.437Z,8.87
2019-03-15T15:00:48.962Z,5.23
2019-03-15T15:03:16.515Z,7.27
2019-03-15T15:05:47.095Z,8.57
2019-03-15T15:08:13.509Z,8.40
2019-03-15T15:10:41.164Z,12.57
2019-03-15T15:13:08.721Z,16.13
2019-03-15T15:15:36.342Z,20.30
2019-03-15T15:18:03.932Z,26.63
2019-03-15T15:20:31.609Z,42.00
2019-03-15T15:22:59.335Z,27.93
2019-03-15T15:25:26.908Z,22.60
2019-03-15T15:28:03.833Z,15.20
2019-03-15T15:30:24.061Z,15.37
2019-03-15T15:32:51.584Z,16.20
2019-03-15T15:35:19.124Z,15.93
2019-03-15T15:37:46.771Z,15.23
2019-03-15T15:40:14.508Z,13.20
2019-03-15T15:42:42.089Z,11.57
2019-03-15T15:45:09.661Z,13.47
2019-03-15T15:47:37.253Z,13.83
2019-03-15T15:50:04.831Z,14.67
2019-03-15T15:52:32.368Z,12.73
2019-03-15T15:55:05.674Z,9.37
2019-03-15T15:57:33.250Z,11.40
2019-03-15T16:00:01.726Z,11.63
2019-03-15T16:02:29.312Z,10.53
2019-03-15T16:04:56.970Z,13.27
2019-03-15T16:07:24.541Z,17.03
2019-03-15T16:09:52.181Z,19.63
2019-03-15T16:12:19.729Z,30.10
2019-03-15T16:14:47.382Z,27.90
2019-03-15T16:17:14.988Z,19.87
2019-03-15T16:19:42.683Z,21.37
2019-03-15T16:22:10.251Z,17.80
2019-03-15T16:24:37.851Z,19.00
2019-03-15T16:27:05.508Z,18.73
2019-03-15T16:29:33.090Z,17.17
2019-03-15T16:32:00.682Z,18.53
2019-03-15T16:34:28.315Z,20.90
2019-03-15T16:36:55.907Z,16.93
2019-03-15T16:39:23.429Z,17.80
2019-03-15T16:41:51.022Z,26.77
2019-03-15T16:44:18.611Z,27.70
2019-03-15T16:46:46.292Z,26.83
2019-03-15T16:49:13.913Z,19.20
2019-03-15T16:51:41.535Z,14.23
2019-03-15T16:54:09.192Z,19.70
2019-03-15T16:56:36.803Z,19.97
2019-03-15T16:59:04.620Z,19.63
2019-03-15T17:01:32.299Z,18.50
2019-03-15T17:03:59.864Z,15.77
2019-03-15T17:06:27.508Z,24.57
2019-03-15T17:08:55.168Z,26.17
2019-03-15T17:11:22.753Z,21.20
2019-03-15T17:13:50.388Z,21.20
2019-03-15T17:16:18.078Z,15.40
2019-03-15T17:18:46.087Z,23.33
2019-03-15T17:21:13.700Z,17.23
2019-03-15T17:23:41.362Z,17.13
2019-03-15T17:26:08.998Z,19.77
2019-03-15T17:28:36.632Z,22.80
2019-03-15T17:31:09.906Z,21.47
2019-03-15T17:33:33.624Z,21.50
2019-03-15T17:36:01.245Z,29.57
2019-03-15T17:38:28.891Z,33.90
2019-03-15T17:40:56.497Z,32.87
2019-03-15T17:43:24.116Z,40.47
2019-03-15T17:45:51.732Z,37.80
2019-03-15T17:48:19.339Z,37.73
2019-03-15T17:50:46.935Z,26.73
2019-03-15T17:53:14.595Z,27.17
2019-03-15T17:55:42.218Z,23.30
2019-03-15T17:58:09.865Z,18.90
2019-03-15T18:00:39.363Z,33.57
2019-03-15T18:03:19.805Z,38.07
2019-03-15T18:05:36.742Z,24.37
2019-03-15T18:08:04.486Z,19.93
2019-03-15T18:10:32.868Z,18.60
2019-03-15T18:13:00.648Z,18.07
2019-03-15T18:15:28.301Z,25.70
2019-03-15T18:17:55.891Z,18.73
2019-03-15T18:20:23.398Z,20.17
2019-03-15T18:22:50.996Z,19.40
2019-03-15T18:25:18.600Z,18.20
2019-03-15T18:27:46.299Z,22.43
2019-03-15T18:30:13.931Z,16.73
2019-03-15T18:32:42.051Z,28.97
2019-03-15T18:35:09.822Z,16.20
2019-03-15T18:37:37.383Z,18.33
2019-03-15T18:40:07.426Z,16.27
2019-03-15T18:42:35.143Z,17.73
2019-03-15T18:45:03.162Z,15.77
2019-03-15T18:47:30.751Z,22.50
2019-03-15T18:49:58.504Z,21.57
2019-03-15T18:52:26.083Z,16.17
2019-03-15T18:54:53.720Z,19.50
2019-03-15T18:57:21.280Z,17.83
2019-03-15T18:59:48.944Z,20.03
2019-03-15T19:02:16.583Z,18.73
2019-03-15T19:04:44.141Z,24.80
2019-03-15T19:07:11.730Z,29.07
2019-03-15T19:09:39.374Z,20.90
2019-03-15T19:12:07.122Z,19.90
2019-03-15T19:14:34.899Z,21.87
2019-03-15T19:17:02.515Z,27.37
2019-03-15T19:19:30.097Z,21.63
2019-03-15T19:21:57.666Z,20.73
2019-03-15T19:24:25.526Z,31.57
2019-03-15T19:26:53.071Z,24.23
2019-03-15T19:29:20.746Z,23.07
2019-03-15T19:31:48.355Z,24.07
2019-03-15T19:34:16.042Z,22.90
2019-03-15T19:36:43.699Z,28.23
2019-03-15T19:39:11.340Z,27.07
2019-03-15T19:41:38.973Z,26.80
2019-03-15T19:44:06.583Z,26.70
2019-03-15T19:46:34.146Z,30.80
2019-03-15T19:49:01.766Z,25.27
2019-03-15T19:51:29.365Z,33.87
2019-03-15T19:53:57.072Z,28.40
2019-03-15T19:56:24.698Z,49.00
2019-03-15T19:58:52.298Z,44.63
2019-03-15T20:01:19.878Z,33.73
2019-03-15T20:03:47.446Z,23.63
2019-03-15T20:06:15.090Z,32.93
2019-03-15T20:08:42.664Z,28.77
2019-03-15T20:11:10.360Z,23.07
2019-03-15T20:13:37.935Z,25.37
2019-03-15T20:16:05.522Z,23.40
2019-03-15T20:18:33.156Z,27.90
2019-03-15T20:21:00.695Z,24.90
2019-03-15T20:23:28.269Z,25.13
2019-03-15T20:25:55.864Z,29.27
2019-03-15T20:28:23.481Z,20.60
2019-03-15T20:30:53.655Z,25.83
2019-03-15T20:33:21.261Z,23.87
2019-03-15T20:35:51.876Z,22.93
2019-03-15T20:38:18.161Z,25.47
2019-03-15T20:40:45.773Z,24.07
2019-03-15T20:43:13.401Z,28.07
2019-03-15T20:45:40.961Z,24.53
2019-03-15T20:48:08.579Z,22.67
2019-03-15T20:50:46.221Z,26.73
2019-03-15T20:53:09.729Z,26.33
2019-03-15T20:55:34.955Z,28.73
2019-03-15T20:58:02.507Z,32.40
2019-03-15T21:00:35.917Z,26.83
2019-03-15T21:02:59.398Z,32.33
2019-03-15T21:05:27.112Z,28.83
2019-03-15T21:07:54.675Z,34.60
2019-03-15T21:10:22.226Z,30.77
2019-03-15T21:12:49.881Z,32.83
2019-03-15T21:15:17.490Z,34.73
2019-03-15T21:17:45.036Z,40.43
2019-03-15T21:20:12.595Z,39.37
2019-03-15T21:22:40.199Z,31.90
2019-03-15T21:25:07.979Z,32.07
2019-03-15T21:27:35.548Z,38.30
2019-03-15T21:30:03.760Z,30.47
2019-03-15T21:32:31.301Z,35.13
2019-03-15T21:34:58.837Z,30.47
2019-03-15T21:37:29.610Z,30.90
2019-03-15T21:39:55.827Z,28.40
2019-03-15T21:42:23.378Z,31.97
2019-03-15T21:44:50.919Z,29.20
2019-03-15T21:47:18.495Z,32.77
2019-03-15T21:49:46.092Z,31.37
2019-03-15T21:52:13.645Z,28.63
2019-03-15T21:54:41.249Z,36.27
2019-03-15T21:57:08.882Z,33.27
2019-03-15T21:59:39.022Z,26.67
2019-03-15T22:02:05.811Z,27.93
2019-03-15T22:04:33.351Z,24.17
2019-03-15T22:07:00.950Z,31.07
2019-03-15T22:09:28.516Z,25.47
2019-03-15T22:11:56.114Z,32.37
2019-03-15T22:14:23.683Z,20.63
2019-03-15T22:16:51.275Z,25.80
2019-03-15T22:19:18.865Z,28.87
2019-03-15T22:21:46.493Z,19.70
2019-03-15T22:24:14.003Z,25.90
2019-03-15T22:26:41.535Z,25.97
2019-03-15T22:29:09.108Z,24.17
2019-03-15T22:31:36.709Z,27.30
2019-03-15T22:34:04.258Z,24.03
2019-03-15T22:36:31.778Z,26.30
2019-03-15T22:38:59.384Z,26.30
2019-03-15T22:41:26.944Z,25.13
2019-03-15T22:43:54.508Z,22.93
2019-03-15T22:46:22.067Z,21.70
2019-03-15T22:48:49.615Z,21.97
2019-03-15T22:51:17.196Z,26.70
2019-03-15T22:53:44.794Z,24.60
2019-03-15T22:56:13.303Z,22.90
2019-03-15T22:58:40.842Z,24.10
2019-03-15T23:01:08.560Z,17.63
2019-03-15T23:03:36.092Z,26.03
2019-03-15T23:06:03.763Z,20.40
2019-03-15T23:08:31.381Z,21.47
2019-03-15T23:10:58.947Z,23.33
2019-03-15T23:13:26.500Z,25.00
2019-03-15T23:15:54.038Z,27.57
2019-03-15T23:18:21.558Z,21.17
2019-03-15T23:20:49.334Z,28.63
2019-03-15T23:23:23.813Z,18.03
2019-03-15T23:25:46.463Z,14.03
2019-03-15T23:28:14.170Z,15.40
2019-03-15T23:30:41.686Z,9.70
2019-03-15T23:33:09.232Z,9.63
2019-03-15T23:35:53.076Z,8.13
2019-03-15T23:38:06.130Z,7.40
2019-03-15T23:40:33.706Z,8.00
2019-03-15T23:43:01.224Z,5.83
2019-03-15T23:45:28.767Z,11.60
2019-03-15T23:47:56.320Z,14.30
2019-03-15T23:50:23.818Z,11.30
2019-03-15T23:52:51.357Z,13.43
2019-03-15T23:55:19.035Z,16.40
2019-03-15T23:57:46.588Z,16.53
